sensor_id;sensor_type;location;lat;lon;timestamp;temperature;humidity
3727;DHT22;1879;45.876;12.300;2023-04-24T00:00:32;16.60;99.90
3727;DHT22;1879;45.876;12.300;2023-04-24T00:02:59;16.60;99.90
3727;DHT22;1879;45.876;12.300;2023-04-24T00:05:26;16.60;99.90
3727;DHT22;1879;45.876;12.300;2023-04-24T00:07:54;16.60;99.90
3727;DHT22;1879;45.876;12.300;2023-04-24T00:10:21;16.60;99.90
3727;DHT22;1879;45.876;12.300;2023-04-24T00:12:48;16.60;99.90
3727;DHT22;1879;45.876;12.300;2023-04-24T00:15:15;16.50;99.90
3727;DHT22;1879;45.876;12.300;2023-04-24T00:17:42;16.50;99.90
3727;DHT22;1879;45.876;12.300;2023-04-24T00:20:10;16.50;99.90
3727;DHT22;1879;45.876;12.300;2023-04-24T00:22:37;16.50;99.90
3727;DHT22;1879;45.876;12.300;2023-04-24T00:25:06;16.50;99.90
3727;DHT22;1879;45.876;12.300;2023-04-24T00:27:33;16.50;99.90
3727;DHT22;1879;45.876;12.300;2023-04-24T00:30:02;16.40;99.90
3727;DHT22;1879;45.876;12.300;2023-04-24T00:32:30;16.40;99.90
3727;DHT22;1879;45.876;12.300;2023-04-24T00:34:57;16.30;99.90
3727;DHT22;1879;45.876;12.300;2023-04-24T00:37:24;16.30;99.90
3727;DHT22;1879;45.876;12.300;2023-04-24T00:39:50;16.30;99.90
3727;DHT22;1879;45.876;12.300;2023-04-24T00:42:19;16.30;99.90
3727;DHT22;1879;45.876;12.300;2023-04-24T00:44:47;16.30;99.90
3727;DHT22;1879;45.876;12.300;2023-04-24T00:47:14;16.30;99.90
3727;DHT22;1879;45.876;12.300;2023-04-24T00:49:41;16.30;99.90
3727;DHT22;1879;45.876;12.300;2023-04-24T00:52:08;16.40;99.90
3727;DHT22;1879;45.876;12.300;2023-04-24T00:54:35;16.40;99.90
3727;DHT22;1879;45.876;12.300;2023-04-24T00:57:03;16.40;99.90
3727;DHT22;1879;45.876;12.300;2023-04-24T00:59:31;16.40;99.90
3727;DHT22;1879;45.876;12.300;2023-04-24T01:01:58;16.40;99.90
3727;DHT22;1879;45.876;12.300;2023-04-24T01:04:30;16.40;99.90
3727;DHT22;1879;45.876;12.300;2023-04-24T01:06:57;16.40;99.90
3727;DHT22;1879;45.876;12.300;2023-04-24T01:09:24;16.40;99.90
3727;DHT22;1879;45.876;12.300;2023-04-24T01:11:51;16.30;99.90
3727;DHT22;1879;45.876;12.300;2023-04-24T01:14:18;16.40;99.90
3727;DHT22;1879;45.876;12.300;2023-04-24T01:16:47;16.50;99.90
3727;DHT22;1879;45.876;12.300;2023-04-24T01:19:14;16.50;99.90
3727;DHT22;1879;45.876;12.300;2023-04-24T01:21:42;16.50;99.90
3727;DHT22;1879;45.876;12.300;2023-04-24T01:24:11;16.50;99.90
3727;DHT22;1879;45.876;12.300;2023-04-24T01:26:39;16.50;99.90
3727;DHT22;1879;45.876;12.300;2023-04-24T01:29:06;16.50;99.90
3727;DHT22;1879;45.876;12.300;2023-04-24T01:31:33;16.40;99.90
3727;DHT22;1879;45.876;12.300;2023-04-24T01:34:01;16.40;99.90
3727;DHT22;1879;45.876;12.300;2023-04-24T01:36:29;16.40;99.90
3727;DHT22;1879;45.876;12.300;2023-04-24T01:38:56;16.40;99.90
3727;DHT22;1879;45.876;12.300;2023-04-24T01:41:25;16.40;99.90
3727;DHT22;1879;45.876;12.300;2023-04-24T01:43:52;16.40;99.90
3727;DHT22;1879;45.876;12.300;2023-04-24T01:46:20;16.40;99.90
3727;DHT22;1879;45.876;12.300;2023-04-24T01:48:47;16.40;99.90
3727;DHT22;1879;45.876;12.300;2023-04-24T01:51:14;16.40;99.90
3727;DHT22;1879;45.876;12.300;2023-04-24T01:53:41;16.40;99.90
3727;DHT22;1879;45.876;12.300;2023-04-24T01:56:09;16.40;99.90
3727;DHT22;1879;45.876;12.300;2023-04-24T01:58:37;16.30;99.90
3727;DHT22;1879;45.876;12.300;2023-04-24T02:01:06;16.30;99.90
3727;DHT22;1879;45.876;12.300;2023-04-24T02:03:33;16.30;99.90
3727;DHT22;1879;45.876;12.300;2023-04-24T02:06:00;16.30;99.90
3727;DHT22;1879;45.876;12.300;2023-04-24T02:08:27;16.30;99.90
3727;DHT22;1879;45.876;12.300;2023-04-24T02:10:54;16.30;99.90
3727;DHT22;1879;45.876;12.300;2023-04-24T02:13:21;16.40;99.90
3727;DHT22;1879;45.876;12.300;2023-04-24T02:15:49;16.40;99.90
3727;DHT22;1879;45.876;12.300;2023-04-24T02:18:16;16.40;99.90
3727;DHT22;1879;45.876;12.300;2023-04-24T02:20:43;16.40;99.90
3727;DHT22;1879;45.876;12.300;2023-04-24T02:23:10;16.40;99.90
3727;DHT22;1879;45.876;12.300;2023-04-24T02:25:38;16.40;99.90
3727;DHT22;1879;45.876;12.300;2023-04-24T02:28:05;16.40;99.90
3727;DHT22;1879;45.876;12.300;2023-04-24T02:30:32;16.40;99.90
3727;DHT22;1879;45.876;12.300;2023-04-24T02:33:01;16.40;99.90
3727;DHT22;1879;45.876;12.300;2023-04-24T02:35:28;16.40;99.90
3727;DHT22;1879;45.876;12.300;2023-04-24T02:37:55;16.40;99.90
3727;DHT22;1879;45.876;12.300;2023-04-24T02:40:22;16.40;99.90
3727;DHT22;1879;45.876;12.300;2023-04-24T02:42:50;16.40;99.90
3727;DHT22;1879;45.876;12.300;2023-04-24T02:45:18;16.50;99.90
3727;DHT22;1879;45.876;12.300;2023-04-24T02:47:45;16.50;99.90
3727;DHT22;1879;45.876;12.300;2023-04-24T02:50:13;16.50;99.90
3727;DHT22;1879;45.876;12.300;2023-04-24T02:52:40;16.40;99.90
3727;DHT22;1879;45.876;12.300;2023-04-24T02:55:07;16.50;99.90
3727;DHT22;1879;45.876;12.300;2023-04-24T02:57:34;16.50;99.90
3727;DHT22;1879;45.876;12.300;2023-04-24T03:00:02;16.50;99.90
3727;DHT22;1879;45.876;12.300;2023-04-24T03:02:31;16.40;99.90
3727;DHT22;1879;45.876;12.300;2023-04-24T03:04:58;16.40;99.90
3727;DHT22;1879;45.876;12.300;2023-04-24T03:07:26;16.40;99.90
3727;DHT22;1879;45.876;12.300;2023-04-24T03:09:53;16.40;99.90
3727;DHT22;1879;45.876;12.300;2023-04-24T03:12:21;16.40;99.90
3727;DHT22;1879;45.876;12.300;2023-04-24T03:14:49;16.40;99.90
3727;DHT22;1879;45.876;12.300;2023-04-24T03:17:16;16.40;99.90
3727;DHT22;1879;45.876;12.300;2023-04-24T03:19:43;16.30;99.90
3727;DHT22;1879;45.876;12.300;2023-04-24T03:22:10;16.30;99.90
3727;DHT22;1879;45.876;12.300;2023-04-24T03:24:39;16.30;99.90
3727;DHT22;1879;45.876;12.300;2023-04-24T03:27:06;16.30;99.90
3727;DHT22;1879;45.876;12.300;2023-04-24T03:29:33;16.20;99.90
3727;DHT22;1879;45.876;12.300;2023-04-24T03:32:00;16.20;99.90
3727;DHT22;1879;45.876;12.300;2023-04-24T03:34:27;16.10;99.90
3727;DHT22;1879;45.876;12.300;2023-04-24T03:36:54;16.20;99.90
3727;DHT22;1879;45.876;12.300;2023-04-24T03:39:20;16.20;99.90
3727;DHT22;1879;45.876;12.300;2023-04-24T03:41:49;16.10;99.90
3727;DHT22;1879;45.876;12.300;2023-04-24T03:44:16;16.10;99.90
3727;DHT22;1879;45.876;12.300;2023-04-24T03:46:43;16.20;99.90
3727;DHT22;1879;45.876;12.300;2023-04-24T03:49:10;16.10;99.90
3727;DHT22;1879;45.876;12.300;2023-04-24T03:51:36;16.10;99.90
3727;DHT22;1879;45.876;12.300;2023-04-24T03:54:03;16.00;99.90
3727;DHT22;1879;45.876;12.300;2023-04-24T03:56:30;16.00;99.90
3727;DHT22;1879;45.876;12.300;2023-04-24T03:58:59;15.90;99.90
3727;DHT22;1879;45.876;12.300;2023-04-24T04:01:26;16.00;99.90
3727;DHT22;1879;45.876;12.300;2023-04-24T04:03:53;16.00;99.90
3727;DHT22;1879;45.876;12.300;2023-04-24T04:06:20;16.00;99.90
3727;DHT22;1879;45.876;12.300;2023-04-24T04:08:48;16.00;99.90
3727;DHT22;1879;45.876;12.300;2023-04-24T04:11:15;16.00;99.90
3727;DHT22;1879;45.876;12.300;2023-04-24T04:13:42;16.00;99.90
3727;DHT22;1879;45.876;12.300;2023-04-24T04:16:10;16.10;99.90
3727;DHT22;1879;45.876;12.300;2023-04-24T04:18:37;16.10;99.90
3727;DHT22;1879;45.876;12.300;2023-04-24T04:21:04;16.00;99.90
3727;DHT22;1879;45.876;12.300;2023-04-24T04:23:31;16.00;99.90
3727;DHT22;1879;45.876;12.300;2023-04-24T04:25:58;16.00;99.90
3727;DHT22;1879;45.876;12.300;2023-04-24T04:28:25;16.00;99.90
3727;DHT22;1879;45.876;12.300;2023-04-24T04:30:52;16.00;99.90
3727;DHT22;1879;45.876;12.300;2023-04-24T04:33:22;16.00;99.90
3727;DHT22;1879;45.876;12.300;2023-04-24T04:35:49;16.00;99.90
3727;DHT22;1879;45.876;12.300;2023-04-24T04:38:17;16.00;99.90
3727;DHT22;1879;45.876;12.300;2023-04-24T04:40:46;16.00;99.90
3727;DHT22;1879;45.876;12.300;2023-04-24T04:43:13;16.00;99.90
3727;DHT22;1879;45.876;12.300;2023-04-24T04:45:40;16.00;99.90
3727;DHT22;1879;45.876;12.300;2023-04-24T04:48:09;16.10;99.90
3727;DHT22;1879;45.876;12.300;2023-04-24T04:50:40;16.00;99.90
3727;DHT22;1879;45.876;12.300;2023-04-24T04:53:07;16.10;99.90
3727;DHT22;1879;45.876;12.300;2023-04-24T04:55:34;16.10;99.90
3727;DHT22;1879;45.876;12.300;2023-04-24T04:58:01;16.10;99.90
3727;DHT22;1879;45.876;12.300;2023-04-24T05:00:28;16.10;99.90
3727;DHT22;1879;45.876;12.300;2023-04-24T05:02:59;16.10;99.90
3727;DHT22;1879;45.876;12.300;2023-04-24T05:05:26;16.10;99.90
3727;DHT22;1879;45.876;12.300;2023-04-24T05:07:55;16.00;99.90
3727;DHT22;1879;45.876;12.300;2023-04-24T05:10:22;16.00;99.90
3727;DHT22;1879;45.876;12.300;2023-04-24T05:12:49;16.00;99.90
3727;DHT22;1879;45.876;12.300;2023-04-24T05:15:16;16.00;99.90
3727;DHT22;1879;45.876;12.300;2023-04-24T05:17:43;16.00;99.90
3727;DHT22;1879;45.876;12.300;2023-04-24T05:20:10;16.00;99.90
3727;DHT22;1879;45.876;12.300;2023-04-24T05:22:40;16.10;99.90
3727;DHT22;1879;45.876;12.300;2023-04-24T05:25:09;16.00;99.90
3727;DHT22;1879;45.876;12.300;2023-04-24T05:27:36;16.00;99.90
3727;DHT22;1879;45.876;12.300;2023-04-24T05:30:06;16.00;99.90
3727;DHT22;1879;45.876;12.300;2023-04-24T05:32:33;16.00;99.90
3727;DHT22;1879;45.876;12.300;2023-04-24T05:35:00;16.00;99.90
3727;DHT22;1879;45.876;12.300;2023-04-24T05:37:27;16.00;99.90
3727;DHT22;1879;45.876;12.300;2023-04-24T05:39:54;15.90;99.90
3727;DHT22;1879;45.876;12.300;2023-04-24T05:42:22;15.90;99.90
3727;DHT22;1879;45.876;12.300;2023-04-24T05:44:50;15.80;99.90
3727;DHT22;1879;45.876;12.300;2023-04-24T05:47:19;15.80;99.90
3727;DHT22;1879;45.876;12.300;2023-04-24T05:49:47;15.80;99.90
3727;DHT22;1879;45.876;12.300;2023-04-24T05:52:14;15.70;99.90
3727;DHT22;1879;45.876;12.300;2023-04-24T05:54:41;15.70;99.90
3727;DHT22;1879;45.876;12.300;2023-04-24T05:57:08;15.70;99.90
3727;DHT22;1879;45.876;12.300;2023-04-24T05:59:37;15.70;99.90
3727;DHT22;1879;45.876;12.300;2023-04-24T06:02:04;15.70;99.90
3727;DHT22;1879;45.876;12.300;2023-04-24T06:04:32;15.70;99.90
3727;DHT22;1879;45.876;12.300;2023-04-24T06:06:59;15.60;99.90
3727;DHT22;1879;45.876;12.300;2023-04-24T06:09:26;15.70;99.90
3727;DHT22;1879;45.876;12.300;2023-04-24T06:11:53;15.60;99.90
3727;DHT22;1879;45.876;12.300;2023-04-24T06:14:20;15.70;99.90
3727;DHT22;1879;45.876;12.300;2023-04-24T06:16:48;15.60;99.90
3727;DHT22;1879;45.876;12.300;2023-04-24T06:19:15;15.60;99.90
3727;DHT22;1879;45.876;12.300;2023-04-24T06:21:42;15.60;99.90
3727;DHT22;1879;45.876;12.300;2023-04-24T06:24:09;15.50;99.90
3727;DHT22;1879;45.876;12.300;2023-04-24T06:26:36;15.40;99.90
3727;DHT22;1879;45.876;12.300;2023-04-24T06:29:03;15.30;99.90
3727;DHT22;1879;45.876;12.300;2023-04-24T06:31:30;15.20;99.90
3727;DHT22;1879;45.876;12.300;2023-04-24T06:34:03;15.30;99.90
3727;DHT22;1879;45.876;12.300;2023-04-24T06:36:31;15.20;99.90
3727;DHT22;1879;45.876;12.300;2023-04-24T06:39:00;15.30;99.90
3727;DHT22;1879;45.876;12.300;2023-04-24T06:41:28;15.40;99.90
3727;DHT22;1879;45.876;12.300;2023-04-24T06:43:55;15.40;99.90
3727;DHT22;1879;45.876;12.300;2023-04-24T06:46:22;15.40;99.90
3727;DHT22;1879;45.876;12.300;2023-04-24T06:48:51;15.40;99.90
3727;DHT22;1879;45.876;12.300;2023-04-24T06:51:22;15.50;99.90
3727;DHT22;1879;45.876;12.300;2023-04-24T06:53:49;15.50;99.90
3727;DHT22;1879;45.876;12.300;2023-04-24T06:56:16;15.50;99.90
3727;DHT22;1879;45.876;12.300;2023-04-24T06:58:43;15.50;99.90
3727;DHT22;1879;45.876;12.300;2023-04-24T07:01:11;15.50;99.90
3727;DHT22;1879;45.876;12.300;2023-04-24T07:03:38;15.50;99.90
3727;DHT22;1879;45.876;12.300;2023-04-24T07:06:05;15.40;99.90
3727;DHT22;1879;45.876;12.300;2023-04-24T07:08:34;15.40;99.90
3727;DHT22;1879;45.876;12.300;2023-04-24T07:11:01;15.40;99.90
3727;DHT22;1879;45.876;12.300;2023-04-24T07:13:28;15.40;99.90
3727;DHT22;1879;45.876;12.300;2023-04-24T07:15:55;15.40;99.90
3727;DHT22;1879;45.876;12.300;2023-04-24T07:18:22;15.40;99.90
3727;DHT22;1879;45.876;12.300;2023-04-24T07:20:49;15.40;99.90
3727;DHT22;1879;45.876;12.300;2023-04-24T07:23:17;15.40;99.90
3727;DHT22;1879;45.876;12.300;2023-04-24T07:25:45;15.40;99.90
3727;DHT22;1879;45.876;12.300;2023-04-24T07:28:12;15.40;99.90
3727;DHT22;1879;45.876;12.300;2023-04-24T07:30:39;15.40;99.90
3727;DHT22;1879;45.876;12.300;2023-04-24T07:33:06;15.40;99.90
3727;DHT22;1879;45.876;12.300;2023-04-24T07:35:35;15.40;99.90
3727;DHT22;1879;45.876;12.300;2023-04-24T07:38:02;15.40;99.90
3727;DHT22;1879;45.876;12.300;2023-04-24T07:40:29;15.40;99.90
3727;DHT22;1879;45.876;12.300;2023-04-24T07:42:57;15.40;99.90
3727;DHT22;1879;45.876;12.300;2023-04-24T07:45:24;15.40;99.90
3727;DHT22;1879;45.876;12.300;2023-04-24T07:47:53;15.40;99.90
3727;DHT22;1879;45.876;12.300;2023-04-24T07:50:21;15.40;99.90
3727;DHT22;1879;45.876;12.300;2023-04-24T07:52:48;15.40;99.90
3727;DHT22;1879;45.876;12.300;2023-04-24T07:55:15;15.30;99.90
3727;DHT22;1879;45.876;12.300;2023-04-24T07:57:42;15.20;99.90
3727;DHT22;1879;45.876;12.300;2023-04-24T08:00:11;15.20;99.90
3727;DHT22;1879;45.876;12.300;2023-04-24T08:02:39;15.20;99.90
3727;DHT22;1879;45.876;12.300;2023-04-24T08:05:06;15.30;99.90
3727;DHT22;1879;45.876;12.300;2023-04-24T08:07:34;15.40;99.90
3727;DHT22;1879;45.876;12.300;2023-04-24T08:10:01;15.50;99.90
3727;DHT22;1879;45.876;12.300;2023-04-24T08:12:29;15.50;99.90
3727;DHT22;1879;45.876;12.300;2023-04-24T08:14:55;15.50;99.90
3727;DHT22;1879;45.876;12.300;2023-04-24T08:17:24;15.60;99.90
3727;DHT22;1879;45.876;12.300;2023-04-24T08:19:51;15.60;99.90
3727;DHT22;1879;45.876;12.300;2023-04-24T08:22:24;15.60;99.90
3727;DHT22;1879;45.876;12.300;2023-04-24T08:24:52;15.50;99.90
3727;DHT22;1879;45.876;12.300;2023-04-24T08:27:19;15.60;99.90
3727;DHT22;1879;45.876;12.300;2023-04-24T08:29:46;15.60;99.90
3727;DHT22;1879;45.876;12.300;2023-04-24T08:32:12;15.70;99.90
3727;DHT22;1879;45.876;12.300;2023-04-24T08:34:41;15.70;99.90
3727;DHT22;1879;45.876;12.300;2023-04-24T08:37:08;15.50;99.90
3727;DHT22;1879;45.876;12.300;2023-04-24T08:39:35;15.40;99.90
3727;DHT22;1879;45.876;12.300;2023-04-24T08:42:02;15.50;99.90
3727;DHT22;1879;45.876;12.300;2023-04-24T08:44:33;15.50;99.90
3727;DHT22;1879;45.876;12.300;2023-04-24T08:47:02;15.40;99.90
3727;DHT22;1879;45.876;12.300;2023-04-24T08:49:29;15.50;99.90
3727;DHT22;1879;45.876;12.300;2023-04-24T08:51:57;15.50;99.90
3727;DHT22;1879;45.876;12.300;2023-04-24T08:54:28;15.60;99.90
3727;DHT22;1879;45.876;12.300;2023-04-24T08:56:58;15.60;99.90
3727;DHT22;1879;45.876;12.300;2023-04-24T08:59:26;15.70;99.90
3727;DHT22;1879;45.876;12.300;2023-04-24T09:01:55;15.80;99.90
3727;DHT22;1879;45.876;12.300;2023-04-24T09:04:22;15.90;99.90
3727;DHT22;1879;45.876;12.300;2023-04-24T09:06:50;15.90;99.90
3727;DHT22;1879;45.876;12.300;2023-04-24T09:09:19;15.90;99.90
3727;DHT22;1879;45.876;12.300;2023-04-24T09:11:46;15.80;99.90
3727;DHT22;1879;45.876;12.300;2023-04-24T09:14:16;15.80;99.90
3727;DHT22;1879;45.876;12.300;2023-04-24T09:16:43;15.70;99.90
3727;DHT22;1879;45.876;12.300;2023-04-24T09:19:10;15.70;99.90
3727;DHT22;1879;45.876;12.300;2023-04-24T09:21:40;15.70;99.90
3727;DHT22;1879;45.876;12.300;2023-04-24T09:24:20;15.70;99.90
3727;DHT22;1879;45.876;12.300;2023-04-24T09:26:48;15.70;99.90
3727;DHT22;1879;45.876;12.300;2023-04-24T09:29:16;15.70;99.90
3727;DHT22;1879;45.876;12.300;2023-04-24T09:31:44;15.60;99.90
3727;DHT22;1879;45.876;12.300;2023-04-24T09:34:12;15.60;99.90
3727;DHT22;1879;45.876;12.300;2023-04-24T09:36:41;15.70;99.90
3727;DHT22;1879;45.876;12.300;2023-04-24T09:39:09;15.70;99.90
3727;DHT22;1879;45.876;12.300;2023-04-24T09:41:45;15.80;99.90
3727;DHT22;1879;45.876;12.300;2023-04-24T09:44:14;15.70;99.90
3727;DHT22;1879;45.876;12.300;2023-04-24T09:46:42;15.60;99.90
3727;DHT22;1879;45.876;12.300;2023-04-24T09:49:12;15.60;99.90
3727;DHT22;1879;45.876;12.300;2023-04-24T09:51:39;15.60;99.90
3727;DHT22;1879;45.876;12.300;2023-04-24T09:54:13;15.60;99.90
3727;DHT22;1879;45.876;12.300;2023-04-24T09:56:44;15.50;99.90
3727;DHT22;1879;45.876;12.300;2023-04-24T09:59:12;15.50;99.90
3727;DHT22;1879;45.876;12.300;2023-04-24T10:01:39;15.60;99.90
3727;DHT22;1879;45.876;12.300;2023-04-24T10:04:16;15.50;99.90
3727;DHT22;1879;45.876;12.300;2023-04-24T10:06:44;15.50;99.90
3727;DHT22;1879;45.876;12.300;2023-04-24T10:09:11;15.50;99.90
3727;DHT22;1879;45.876;12.300;2023-04-24T10:11:41;15.50;99.90
3727;DHT22;1879;45.876;12.300;2023-04-24T10:14:12;15.50;99.90
3727;DHT22;1879;45.876;12.300;2023-04-24T10:16:40;15.50;99.90
3727;DHT22;1879;45.876;12.300;2023-04-24T10:19:07;15.40;99.90
3727;DHT22;1879;45.876;12.300;2023-04-24T10:21:35;15.50;99.90
3727;DHT22;1879;45.876;12.300;2023-04-24T10:24:06;15.50;99.90
3727;DHT22;1879;45.876;12.300;2023-04-24T10:26:34;15.60;99.90
3727;DHT22;1879;45.876;12.300;2023-04-24T10:29:02;15.60;99.90
3727;DHT22;1879;45.876;12.300;2023-04-24T10:31:33;15.60;99.90
3727;DHT22;1879;45.876;12.300;2023-04-24T10:34:03;15.70;99.90
3727;DHT22;1879;45.876;12.300;2023-04-24T10:36:31;15.70;99.90
3727;DHT22;1879;45.876;12.300;2023-04-24T10:39:01;15.70;99.90
3727;DHT22;1879;45.876;12.300;2023-04-24T10:41:30;15.80;99.90
3727;DHT22;1879;45.876;12.300;2023-04-24T10:44:07;15.70;99.90
3727;DHT22;1879;45.876;12.300;2023-04-24T10:46:37;15.80;99.90
3727;DHT22;1879;45.876;12.300;2023-04-24T10:49:05;15.70;99.90
3727;DHT22;1879;45.876;12.300;2023-04-24T10:51:45;15.70;99.90
3727;DHT22;1879;45.876;12.300;2023-04-24T10:54:23;15.70;99.90
3727;DHT22;1879;45.876;12.300;2023-04-24T10:56:50;15.70;99.90
3727;DHT22;1879;45.876;12.300;2023-04-24T10:59:24;15.70;99.90
3727;DHT22;1879;45.876;12.300;2023-04-24T11:01:55;15.60;99.90
3727;DHT22;1879;45.876;12.300;2023-04-24T11:04:32;15.50;99.90
3727;DHT22;1879;45.876;12.300;2023-04-24T11:07:01;15.40;99.90
3727;DHT22;1879;45.876;12.300;2023-04-24T11:09:30;15.40;99.90
3727;DHT22;1879;45.876;12.300;2023-04-24T11:12:05;15.50;99.90
3727;DHT22;1879;45.876;12.300;2023-04-24T11:15:00;15.50;99.90
3727;DHT22;1879;45.876;12.300;2023-04-24T11:17:30;15.60;99.90
3727;DHT22;1879;45.876;12.300;2023-04-24T11:20:02;15.70;99.90
3727;DHT22;1879;45.876;12.300;2023-04-24T11:22:33;15.70;99.90
3727;DHT22;1879;45.876;12.300;2023-04-24T11:25:01;15.70;99.90
3727;DHT22;1879;45.876;12.300;2023-04-24T11:27:30;15.90;99.90
3727;DHT22;1879;45.876;12.300;2023-04-24T11:30:03;16.00;99.90
3727;DHT22;1879;45.876;12.300;2023-04-24T11:32:36;16.10;99.90
3727;DHT22;1879;45.876;12.300;2023-04-24T11:35:09;16.30;99.90
3727;DHT22;1879;45.876;12.300;2023-04-24T11:37:40;16.30;99.90
3727;DHT22;1879;45.876;12.300;2023-04-24T11:40:09;16.30;99.90
3727;DHT22;1879;45.876;12.300;2023-04-24T11:42:37;16.30;99.90
3727;DHT22;1879;45.876;12.300;2023-04-24T11:45:08;16.40;99.90
3727;DHT22;1879;45.876;12.300;2023-04-24T11:47:38;16.50;99.90
3727;DHT22;1879;45.876;12.300;2023-04-24T11:50:07;16.60;99.90
3727;DHT22;1879;45.876;12.300;2023-04-24T11:52:37;16.70;99.90
3727;DHT22;1879;45.876;12.300;2023-04-24T11:55:07;16.80;99.90
3727;DHT22;1879;45.876;12.300;2023-04-24T11:57:34;16.90;99.90
3727;DHT22;1879;45.876;12.300;2023-04-24T12:00:03;16.90;99.90
3727;DHT22;1879;45.876;12.300;2023-04-24T12:02:31;17.00;99.90
3727;DHT22;1879;45.876;12.300;2023-04-24T12:05:00;16.90;99.90
3727;DHT22;1879;45.876;12.300;2023-04-24T12:07:26;16.90;99.90
3727;DHT22;1879;45.876;12.300;2023-04-24T12:09:57;17.00;99.90
3727;DHT22;1879;45.876;12.300;2023-04-24T12:12:26;16.90;99.90
3727;DHT22;1879;45.876;12.300;2023-04-24T12:14:54;17.00;99.90
3727;DHT22;1879;45.876;12.300;2023-04-24T12:17:26;17.00;99.90
3727;DHT22;1879;45.876;12.300;2023-04-24T12:19:57;17.00;99.90
3727;DHT22;1879;45.876;12.300;2023-04-24T12:22:26;17.10;99.90
3727;DHT22;1879;45.876;12.300;2023-04-24T12:25:01;17.10;99.90
3727;DHT22;1879;45.876;12.300;2023-04-24T12:27:31;17.10;99.90
3727;DHT22;1879;45.876;12.300;2023-04-24T12:30:01;17.10;99.90
3727;DHT22;1879;45.876;12.300;2023-04-24T12:32:28;17.10;99.90
3727;DHT22;1879;45.876;12.300;2023-04-24T12:34:56;17.10;99.90
3727;DHT22;1879;45.876;12.300;2023-04-24T12:37:24;17.10;99.90
3727;DHT22;1879;45.876;12.300;2023-04-24T12:40:07;17.10;99.90
3727;DHT22;1879;45.876;12.300;2023-04-24T12:42:35;17.10;99.90
3727;DHT22;1879;45.876;12.300;2023-04-24T12:45:09;17.00;99.90
3727;DHT22;1879;45.876;12.300;2023-04-24T12:47:39;17.10;99.90
3727;DHT22;1879;45.876;12.300;2023-04-24T12:50:08;17.20;99.90
3727;DHT22;1879;45.876;12.300;2023-04-24T12:52:35;17.20;99.90
3727;DHT22;1879;45.876;12.300;2023-04-24T12:55:07;17.10;99.90
3727;DHT22;1879;45.876;12.300;2023-04-24T12:57:36;17.10;99.90
3727;DHT22;1879;45.876;12.300;2023-04-24T13:00:05;17.00;99.90
3727;DHT22;1879;45.876;12.300;2023-04-24T13:02:33;17.00;99.90
3727;DHT22;1879;45.876;12.300;2023-04-24T13:05:00;16.90;99.90
3727;DHT22;1879;45.876;12.300;2023-04-24T13:07:28;17.00;99.90
3727;DHT22;1879;45.876;12.300;2023-04-24T13:09:56;16.90;99.90
3727;DHT22;1879;45.876;12.300;2023-04-24T13:12:25;17.00;99.90
3727;DHT22;1879;45.876;12.300;2023-04-24T13:14:52;17.10;99.90
3727;DHT22;1879;45.876;12.300;2023-04-24T13:17:19;17.20;99.90
3727;DHT22;1879;45.876;12.300;2023-04-24T13:19:46;17.30;99.90
3727;DHT22;1879;45.876;12.300;2023-04-24T13:22:13;17.40;99.90
3727;DHT22;1879;45.876;12.300;2023-04-24T13:24:40;17.40;99.90
3727;DHT22;1879;45.876;12.300;2023-04-24T13:27:08;17.40;99.90
3727;DHT22;1879;45.876;12.300;2023-04-24T13:29:36;17.50;99.90
3727;DHT22;1879;45.876;12.300;2023-04-24T13:32:03;17.60;99.90
3727;DHT22;1879;45.876;12.300;2023-04-24T13:34:31;17.60;99.90
3727;DHT22;1879;45.876;12.300;2023-04-24T13:36:58;17.70;99.90
3727;DHT22;1879;45.876;12.300;2023-04-24T13:39:25;17.90;99.90
3727;DHT22;1879;45.876;12.300;2023-04-24T13:41:53;18.00;99.90
3727;DHT22;1879;45.876;12.300;2023-04-24T13:44:21;18.10;99.90
3727;DHT22;1879;45.876;12.300;2023-04-24T13:46:52;18.20;99.90
3727;DHT22;1879;45.876;12.300;2023-04-24T13:49:20;18.20;99.90
3727;DHT22;1879;45.876;12.300;2023-04-24T13:51:47;18.30;99.90
3727;DHT22;1879;45.876;12.300;2023-04-24T13:54:14;18.30;99.90
3727;DHT22;1879;45.876;12.300;2023-04-24T13:56:41;18.40;99.90
3727;DHT22;1879;45.876;12.300;2023-04-24T13:59:08;18.50;99.90
3727;DHT22;1879;45.876;12.300;2023-04-24T14:01:35;18.60;99.90
3727;DHT22;1879;45.876;12.300;2023-04-24T14:04:04;18.60;99.90
3727;DHT22;1879;45.876;12.300;2023-04-24T14:06:31;18.80;99.90
3727;DHT22;1879;45.876;12.300;2023-04-24T14:08:58;19.10;99.90
3727;DHT22;1879;45.876;12.300;2023-04-24T14:11:26;19.30;99.90
3727;DHT22;1879;45.876;12.300;2023-04-24T14:13:54;19.60;99.90
3727;DHT22;1879;45.876;12.300;2023-04-24T14:16:22;19.80;99.90
3727;DHT22;1879;45.876;12.300;2023-04-24T14:18:50;20.10;99.90
3727;DHT22;1879;45.876;12.300;2023-04-24T14:21:18;20.30;99.90
3727;DHT22;1879;45.876;12.300;2023-04-24T14:23:45;20.50;99.90
3727;DHT22;1879;45.876;12.300;2023-04-24T14:26:12;20.50;99.90
3727;DHT22;1879;45.876;12.300;2023-04-24T14:28:39;20.60;99.90
3727;DHT22;1879;45.876;12.300;2023-04-24T14:31:06;20.60;99.90
3727;DHT22;1879;45.876;12.300;2023-04-24T14:33:33;20.70;99.90
3727;DHT22;1879;45.876;12.300;2023-04-24T14:36:00;21.00;99.90
3727;DHT22;1879;45.876;12.300;2023-04-24T14:38:29;21.30;99.90
3727;DHT22;1879;45.876;12.300;2023-04-24T14:40:57;21.50;99.90
3727;DHT22;1879;45.876;12.300;2023-04-24T14:43:24;21.70;99.90
3727;DHT22;1879;45.876;12.300;2023-04-24T14:45:51;22.00;98.10
3727;DHT22;1879;45.876;12.300;2023-04-24T14:48:17;22.30;97.10
3727;DHT22;1879;45.876;12.300;2023-04-24T14:50:44;22.40;96.40
3727;DHT22;1879;45.876;12.300;2023-04-24T14:53:11;22.50;95.50
3727;DHT22;1879;45.876;12.300;2023-04-24T14:55:40;22.50;94.70
3727;DHT22;1879;45.876;12.300;2023-04-24T14:58:07;22.60;93.40
3727;DHT22;1879;45.876;12.300;2023-04-24T15:00:34;22.70;93.90
3727;DHT22;1879;45.876;12.300;2023-04-24T15:03:01;23.00;93.30
3727;DHT22;1879;45.876;12.300;2023-04-24T15:05:28;23.50;92.00
3727;DHT22;1879;45.876;12.300;2023-04-24T15:07:55;23.70;91.90
3727;DHT22;1879;45.876;12.300;2023-04-24T15:10:22;23.80;90.60
3727;DHT22;1879;45.876;12.300;2023-04-24T15:12:52;23.90;90.30
3727;DHT22;1879;45.876;12.300;2023-04-24T15:15:19;23.90;90.60
3727;DHT22;1879;45.876;12.300;2023-04-24T15:17:46;24.20;90.60
3727;DHT22;1879;45.876;12.300;2023-04-24T15:20:13;24.00;94.00
3727;DHT22;1879;45.876;12.300;2023-04-24T15:22:40;23.90;93.90
3727;DHT22;1879;45.876;12.300;2023-04-24T15:25:08;24.30;94.80
3727;DHT22;1879;45.876;12.300;2023-04-24T15:27:42;25.00;97.20
3727;DHT22;1879;45.876;12.300;2023-04-24T15:30:11;26.00;95.10
3727;DHT22;1879;45.876;12.300;2023-04-24T15:32:38;26.70;94.40
3727;DHT22;1879;45.876;12.300;2023-04-24T15:35:06;27.50;88.70
3727;DHT22;1879;45.876;12.300;2023-04-24T15:37:33;27.30;83.30
3727;DHT22;1879;45.876;12.300;2023-04-24T15:40:00;27.50;82.70
3727;DHT22;1879;45.876;12.300;2023-04-24T15:42:29;27.60;82.40
3727;DHT22;1879;45.876;12.300;2023-04-24T15:44:56;27.70;78.70
3727;DHT22;1879;45.876;12.300;2023-04-24T15:47:25;27.70;80.70
3727;DHT22;1879;45.876;12.300;2023-04-24T15:49:52;27.50;77.30